Madison, South Dakota
Current Conditions -  °F | °C
As of 9:50 PM on Monday 22 Dec 2014 (Local Time) from KMDS Reporting Station
Haze Haze  
Wind Chill: 25°   Ceiling: 300
Heat Index: 34°   Visibility: 2.5mi
Dew Point: 34°   Wind: 13mph
Humidity: 100%   Direction: 100°E
Pressure: 29.49"   Gusts: NA
Location:  44.01°N, 97.11°W
Report Text: KMDS 230350Z AUTO 10011KT 2 1/2SM BR OVC003 01/01 A2949 RMK AO2
Loading
Personal Weather Stations






























Interactive Weather Map New forecast layout! Learn more

10-Day Weather Forecast

Advertisements
Track Severe Weather on mobile